sensor_id;sensor_type;location;lat;lon;timestamp;temperature;humidity
14517;DHT22;7344;50.864;4.362;2023-05-10T00:02:07;13.60;99.90
14517;DHT22;7344;50.864;4.362;2023-05-10T00:04:32;13.60;99.90
14517;DHT22;7344;50.864;4.362;2023-05-10T00:06:58;13.70;99.90
14517;DHT22;7344;50.864;4.362;2023-05-10T00:09:24;13.60;99.90
14517;DHT22;7344;50.864;4.362;2023-05-10T00:11:49;13.60;99.90
14517;DHT22;7344;50.864;4.362;2023-05-10T00:14:15;13.60;99.90
14517;DHT22;7344;50.864;4.362;2023-05-10T00:16:41;13.60;99.90
14517;DHT22;7344;50.864;4.362;2023-05-10T00:19:06;13.70;99.90
14517;DHT22;7344;50.864;4.362;2023-05-10T00:21:32;13.70;99.90
14517;DHT22;7344;50.864;4.362;2023-05-10T00:23:59;13.60;99.90
14517;DHT22;7344;50.864;4.362;2023-05-10T00:26:25;13.60;99.90
14517;DHT22;7344;50.864;4.362;2023-05-10T00:28:51;13.70;99.90
14517;DHT22;7344;50.864;4.362;2023-05-10T00:31:16;13.80;99.90
14517;DHT22;7344;50.864;4.362;2023-05-10T00:33:42;13.90;99.90
14517;DHT22;7344;50.864;4.362;2023-05-10T00:36:08;14.00;99.90
14517;DHT22;7344;50.864;4.362;2023-05-10T00:38:33;13.90;99.90
14517;DHT22;7344;50.864;4.362;2023-05-10T00:40:59;13.80;99.90
14517;DHT22;7344;50.864;4.362;2023-05-10T00:43:25;13.80;99.90
14517;DHT22;7344;50.864;4.362;2023-05-10T00:45:50;13.70;99.90
14517;DHT22;7344;50.864;4.362;2023-05-10T00:48:16;13.60;99.90
14517;DHT22;7344;50.864;4.362;2023-05-10T00:50:42;13.60;99.90
14517;DHT22;7344;50.864;4.362;2023-05-10T00:53:08;13.60;99.90
14517;DHT22;7344;50.864;4.362;2023-05-10T00:55:34;13.60;99.90
14517;DHT22;7344;50.864;4.362;2023-05-10T00:58:00;13.60;99.90
14517;DHT22;7344;50.864;4.362;2023-05-10T01:00:26;13.70;99.90
14517;DHT22;7344;50.864;4.362;2023-05-10T01:02:53;13.70;99.90
14517;DHT22;7344;50.864;4.362;2023-05-10T01:05:19;13.80;99.90
14517;DHT22;7344;50.864;4.362;2023-05-10T01:07:46;13.80;99.90
14517;DHT22;7344;50.864;4.362;2023-05-10T01:10:11;13.80;99.90
14517;DHT22;7344;50.864;4.362;2023-05-10T01:12:39;13.70;99.90
14517;DHT22;7344;50.864;4.362;2023-05-10T01:15:07;13.60;99.90
14517;DHT22;7344;50.864;4.362;2023-05-10T01:17:34;13.60;99.90
14517;DHT22;7344;50.864;4.362;2023-05-10T01:20:01;13.60;99.90
14517;DHT22;7344;50.864;4.362;2023-05-10T01:25:28;13.70;99.90
14517;DHT22;7344;50.864;4.362;2023-05-10T01:30:55;13.90;99.90
14517;DHT22;7344;50.864;4.362;2023-05-10T01:33:41;13.80;99.90
14517;DHT22;7344;50.864;4.362;2023-05-10T01:36:35;13.70;99.90
14517;DHT22;7344;50.864;4.362;2023-05-10T01:39:25;13.80;99.90
14517;DHT22;7344;50.864;4.362;2023-05-10T01:41:54;13.80;99.90
14517;DHT22;7344;50.864;4.362;2023-05-10T01:44:29;13.70;99.90
14517;DHT22;7344;50.864;4.362;2023-05-10T01:47:16;13.80;99.90
14517;DHT22;7344;50.864;4.362;2023-05-10T01:49:53;13.80;99.90
14517;DHT22;7344;50.864;4.362;2023-05-10T01:52:25;13.80;99.90
14517;DHT22;7344;50.864;4.362;2023-05-10T01:55:11;13.90;99.90
14517;DHT22;7344;50.864;4.362;2023-05-10T01:57:40;13.80;99.90
14517;DHT22;7344;50.864;4.362;2023-05-10T02:00:09;13.70;99.90
14517;DHT22;7344;50.864;4.362;2023-05-10T02:02:40;13.80;99.90
14517;DHT22;7344;50.864;4.362;2023-05-10T02:05:08;13.70;99.90
14517;DHT22;7344;50.864;4.362;2023-05-10T02:07:36;13.70;99.90
14517;DHT22;7344;50.864;4.362;2023-05-10T02:10:04;13.70;99.90
14517;DHT22;7344;50.864;4.362;2023-05-10T02:12:32;13.70;99.90
14517;DHT22;7344;50.864;4.362;2023-05-10T02:15:02;13.80;99.90
14517;DHT22;7344;50.864;4.362;2023-05-10T02:17:28;13.90;99.90
14517;DHT22;7344;50.864;4.362;2023-05-10T02:19:56;13.90;99.90
14517;DHT22;7344;50.864;4.362;2023-05-10T02:22:24;13.80;99.90
14517;DHT22;7344;50.864;4.362;2023-05-10T02:24:51;13.80;99.90
14517;DHT22;7344;50.864;4.362;2023-05-10T02:27:17;13.90;99.90
14517;DHT22;7344;50.864;4.362;2023-05-10T02:29:44;13.80;99.90
14517;DHT22;7344;50.864;4.362;2023-05-10T02:32:12;13.80;99.90
14517;DHT22;7344;50.864;4.362;2023-05-10T02:34:38;13.80;99.90
14517;DHT22;7344;50.864;4.362;2023-05-10T02:37:05;13.80;99.90
14517;DHT22;7344;50.864;4.362;2023-05-10T02:39:31;13.70;99.90
14517;DHT22;7344;50.864;4.362;2023-05-10T02:41:58;13.70;99.90
14517;DHT22;7344;50.864;4.362;2023-05-10T02:44:25;13.80;99.90
14517;DHT22;7344;50.864;4.362;2023-05-10T02:46:52;13.70;99.90
14517;DHT22;7344;50.864;4.362;2023-05-10T02:49:18;13.80;99.90
14517;DHT22;7344;50.864;4.362;2023-05-10T02:52:00;13.80;99.90
14517;DHT22;7344;50.864;4.362;2023-05-10T02:54:30;13.80;99.90
14517;DHT22;7344;50.864;4.362;2023-05-10T02:56:58;13.80;99.90
14517;DHT22;7344;50.864;4.362;2023-05-10T02:59:27;13.80;99.90
14517;DHT22;7344;50.864;4.362;2023-05-10T03:01:53;13.80;99.90
14517;DHT22;7344;50.864;4.362;2023-05-10T03:04:18;13.80;99.90
14517;DHT22;7344;50.864;4.362;2023-05-10T03:06:44;13.70;99.90
14517;DHT22;7344;50.864;4.362;2023-05-10T03:09:10;13.70;99.90
14517;DHT22;7344;50.864;4.362;2023-05-10T03:11:56;13.70;99.90
14517;DHT22;7344;50.864;4.362;2023-05-10T03:15:03;13.60;99.90
14517;DHT22;7344;50.864;4.362;2023-05-10T03:20:20;13.60;99.90
14517;DHT22;7344;50.864;4.362;2023-05-10T03:23:02;13.70;99.90
14517;DHT22;7344;50.864;4.362;2023-05-10T03:25:31;13.80;99.90
14517;DHT22;7344;50.864;4.362;2023-05-10T03:27:57;13.80;99.90
14517;DHT22;7344;50.864;4.362;2023-05-10T03:30:24;13.70;99.90
14517;DHT22;7344;50.864;4.362;2023-05-10T03:32:50;13.60;99.90
14517;DHT22;7344;50.864;4.362;2023-05-10T03:35:15;13.60;99.90
14517;DHT22;7344;50.864;4.362;2023-05-10T03:37:41;13.50;99.90
14517;DHT22;7344;50.864;4.362;2023-05-10T03:40:07;13.60;99.90
14517;DHT22;7344;50.864;4.362;2023-05-10T03:42:33;13.60;99.90
14517;DHT22;7344;50.864;4.362;2023-05-10T03:44:59;13.50;99.90
14517;DHT22;7344;50.864;4.362;2023-05-10T03:47:24;13.50;99.90
14517;DHT22;7344;50.864;4.362;2023-05-10T03:49:50;13.50;99.90
14517;DHT22;7344;50.864;4.362;2023-05-10T03:52:16;13.50;99.90
14517;DHT22;7344;50.864;4.362;2023-05-10T03:54:41;13.50;99.90
14517;DHT22;7344;50.864;4.362;2023-05-10T03:57:07;13.50;99.90
14517;DHT22;7344;50.864;4.362;2023-05-10T03:59:32;13.50;99.90
14517;DHT22;7344;50.864;4.362;2023-05-10T04:01:58;13.40;99.90
14517;DHT22;7344;50.864;4.362;2023-05-10T04:04:24;13.30;99.90
14517;DHT22;7344;50.864;4.362;2023-05-10T04:06:49;13.30;99.90
14517;DHT22;7344;50.864;4.362;2023-05-10T04:09:15;13.20;99.90
14517;DHT22;7344;50.864;4.362;2023-05-10T04:11:42;13.20;99.90
14517;DHT22;7344;50.864;4.362;2023-05-10T04:14:08;13.30;99.90
14517;DHT22;7344;50.864;4.362;2023-05-10T04:16:33;13.30;99.90
14517;DHT22;7344;50.864;4.362;2023-05-10T04:18:59;13.40;99.90
14517;DHT22;7344;50.864;4.362;2023-05-10T04:21:25;13.40;99.90
14517;DHT22;7344;50.864;4.362;2023-05-10T04:23:50;13.40;99.90
14517;DHT22;7344;50.864;4.362;2023-05-10T04:26:16;13.40;99.90
14517;DHT22;7344;50.864;4.362;2023-05-10T04:28:42;13.40;99.90
14517;DHT22;7344;50.864;4.362;2023-05-10T04:31:09;13.40;99.90
14517;DHT22;7344;50.864;4.362;2023-05-10T04:33:35;13.50;99.90
14517;DHT22;7344;50.864;4.362;2023-05-10T04:36:01;13.50;99.90
14517;DHT22;7344;50.864;4.362;2023-05-10T04:38:27;13.50;99.90
14517;DHT22;7344;50.864;4.362;2023-05-10T04:40:53;13.50;99.90
14517;DHT22;7344;50.864;4.362;2023-05-10T04:43:21;13.50;99.90
14517;DHT22;7344;50.864;4.362;2023-05-10T04:45:46;13.60;99.90
14517;DHT22;7344;50.864;4.362;2023-05-10T04:48:12;13.70;99.90
14517;DHT22;7344;50.864;4.362;2023-05-10T04:50:39;13.80;99.90
14517;DHT22;7344;50.864;4.362;2023-05-10T04:53:05;13.80;99.90
14517;DHT22;7344;50.864;4.362;2023-05-10T04:55:30;13.90;99.90
14517;DHT22;7344;50.864;4.362;2023-05-10T04:57:56;13.90;99.90
14517;DHT22;7344;50.864;4.362;2023-05-10T05:00:23;14.00;99.90
14517;DHT22;7344;50.864;4.362;2023-05-10T05:02:48;14.00;99.90
14517;DHT22;7344;50.864;4.362;2023-05-10T05:05:14;14.10;99.90
14517;DHT22;7344;50.864;4.362;2023-05-10T05:07:40;14.10;99.90
14517;DHT22;7344;50.864;4.362;2023-05-10T05:10:06;14.20;99.90
14517;DHT22;7344;50.864;4.362;2023-05-10T05:12:32;14.20;99.90
14517;DHT22;7344;50.864;4.362;2023-05-10T05:14:58;14.30;99.90
14517;DHT22;7344;50.864;4.362;2023-05-10T05:17:24;14.20;99.90
14517;DHT22;7344;50.864;4.362;2023-05-10T05:19:49;14.30;99.90
14517;DHT22;7344;50.864;4.362;2023-05-10T05:22:15;14.40;99.90
14517;DHT22;7344;50.864;4.362;2023-05-10T05:24:40;14.30;99.90
14517;DHT22;7344;50.864;4.362;2023-05-10T05:27:06;14.40;99.90
14517;DHT22;7344;50.864;4.362;2023-05-10T05:29:32;14.40;99.90
14517;DHT22;7344;50.864;4.362;2023-05-10T05:31:58;14.30;99.90
14517;DHT22;7344;50.864;4.362;2023-05-10T05:34:23;14.40;99.90
14517;DHT22;7344;50.864;4.362;2023-05-10T05:36:49;14.50;99.90
14517;DHT22;7344;50.864;4.362;2023-05-10T05:39:15;14.60;99.90
14517;DHT22;7344;50.864;4.362;2023-05-10T05:41:41;14.70;99.90
14517;DHT22;7344;50.864;4.362;2023-05-10T05:44:07;14.70;99.90
14517;DHT22;7344;50.864;4.362;2023-05-10T05:46:33;14.60;99.90
14517;DHT22;7344;50.864;4.362;2023-05-10T05:48:59;14.50;99.90
14517;DHT22;7344;50.864;4.362;2023-05-10T05:51:24;14.40;99.90
14517;DHT22;7344;50.864;4.362;2023-05-10T05:53:50;14.30;99.90
14517;DHT22;7344;50.864;4.362;2023-05-10T05:56:16;14.20;99.90
14517;DHT22;7344;50.864;4.362;2023-05-10T05:58:43;14.20;99.90
14517;DHT22;7344;50.864;4.362;2023-05-10T06:01:09;14.20;99.90
14517;DHT22;7344;50.864;4.362;2023-05-10T06:03:34;14.60;99.90
14517;DHT22;7344;50.864;4.362;2023-05-10T06:06:00;15.30;99.90
14517;DHT22;7344;50.864;4.362;2023-05-10T06:08:25;15.50;99.90
14517;DHT22;7344;50.864;4.362;2023-05-10T06:10:51;15.60;99.90
14517;DHT22;7344;50.864;4.362;2023-05-10T06:13:17;15.50;99.90
14517;DHT22;7344;50.864;4.362;2023-05-10T06:15:42;15.50;99.90
14517;DHT22;7344;50.864;4.362;2023-05-10T06:18:08;15.70;99.90
14517;DHT22;7344;50.864;4.362;2023-05-10T06:20:33;15.90;99.90
14517;DHT22;7344;50.864;4.362;2023-05-10T06:22:59;15.80;99.90
14517;DHT22;7344;50.864;4.362;2023-05-10T06:25:27;15.60;99.90
14517;DHT22;7344;50.864;4.362;2023-05-10T06:27:53;15.50;99.90
14517;DHT22;7344;50.864;4.362;2023-05-10T06:30:23;15.50;99.90
14517;DHT22;7344;50.864;4.362;2023-05-10T06:32:52;15.30;99.90
14517;DHT22;7344;50.864;4.362;2023-05-10T06:35:19;15.30;99.90
14517;DHT22;7344;50.864;4.362;2023-05-10T06:37:44;15.20;99.90
14517;DHT22;7344;50.864;4.362;2023-05-10T06:40:10;15.10;99.90
14517;DHT22;7344;50.864;4.362;2023-05-10T06:42:36;15.10;99.90
14517;DHT22;7344;50.864;4.362;2023-05-10T06:45:02;14.80;99.90
14517;DHT22;7344;50.864;4.362;2023-05-10T06:47:27;14.80;99.90
14517;DHT22;7344;50.864;4.362;2023-05-10T06:49:53;14.80;99.90
14517;DHT22;7344;50.864;4.362;2023-05-10T06:52:19;14.70;99.90
14517;DHT22;7344;50.864;4.362;2023-05-10T06:54:44;14.30;99.90
14517;DHT22;7344;50.864;4.362;2023-05-10T06:57:10;14.20;99.90
14517;DHT22;7344;50.864;4.362;2023-05-10T06:59:35;14.20;99.90
14517;DHT22;7344;50.864;4.362;2023-05-10T07:02:01;14.20;99.90
14517;DHT22;7344;50.864;4.362;2023-05-10T07:04:27;14.20;99.90
14517;DHT22;7344;50.864;4.362;2023-05-10T07:06:53;14.20;99.90
14517;DHT22;7344;50.864;4.362;2023-05-10T07:09:19;14.20;99.90
14517;DHT22;7344;50.864;4.362;2023-05-10T07:11:44;13.90;99.90
14517;DHT22;7344;50.864;4.362;2023-05-10T07:14:10;14.00;99.90
14517;DHT22;7344;50.864;4.362;2023-05-10T07:16:36;14.00;99.90
14517;DHT22;7344;50.864;4.362;2023-05-10T07:19:01;14.10;99.90
14517;DHT22;7344;50.864;4.362;2023-05-10T07:21:27;13.90;99.90
14517;DHT22;7344;50.864;4.362;2023-05-10T07:23:54;13.80;99.90
14517;DHT22;7344;50.864;4.362;2023-05-10T07:26:20;13.80;99.90
14517;DHT22;7344;50.864;4.362;2023-05-10T07:28:46;13.90;99.90
14517;DHT22;7344;50.864;4.362;2023-05-10T07:31:12;13.90;99.90
14517;DHT22;7344;50.864;4.362;2023-05-10T07:33:38;14.20;99.90
14517;DHT22;7344;50.864;4.362;2023-05-10T07:36:03;14.10;99.90
14517;DHT22;7344;50.864;4.362;2023-05-10T07:38:29;14.10;99.90
14517;DHT22;7344;50.864;4.362;2023-05-10T07:40:55;13.90;99.90
14517;DHT22;7344;50.864;4.362;2023-05-10T07:43:20;13.70;99.90
14517;DHT22;7344;50.864;4.362;2023-05-10T07:45:46;13.60;99.90
14517;DHT22;7344;50.864;4.362;2023-05-10T07:48:11;13.60;99.90
14517;DHT22;7344;50.864;4.362;2023-05-10T07:50:37;13.60;99.90
14517;DHT22;7344;50.864;4.362;2023-05-10T07:53:02;13.60;99.90
14517;DHT22;7344;50.864;4.362;2023-05-10T07:55:28;13.50;99.90
14517;DHT22;7344;50.864;4.362;2023-05-10T07:57:53;13.60;99.90
14517;DHT22;7344;50.864;4.362;2023-05-10T08:00:20;13.60;99.90
14517;DHT22;7344;50.864;4.362;2023-05-10T08:02:46;13.70;99.90
14517;DHT22;7344;50.864;4.362;2023-05-10T08:05:12;13.80;99.90
14517;DHT22;7344;50.864;4.362;2023-05-10T08:07:38;14.00;99.90
14517;DHT22;7344;50.864;4.362;2023-05-10T08:10:05;14.10;99.90
14517;DHT22;7344;50.864;4.362;2023-05-10T08:12:30;14.40;99.90
14517;DHT22;7344;50.864;4.362;2023-05-10T08:14:56;14.60;99.90
14517;DHT22;7344;50.864;4.362;2023-05-10T08:17:22;14.50;99.90
14517;DHT22;7344;50.864;4.362;2023-05-10T08:19:48;14.30;99.90
14517;DHT22;7344;50.864;4.362;2023-05-10T08:22:13;14.40;99.90
14517;DHT22;7344;50.864;4.362;2023-05-10T08:24:39;14.50;99.90
14517;DHT22;7344;50.864;4.362;2023-05-10T08:27:05;14.90;99.90
14517;DHT22;7344;50.864;4.362;2023-05-10T08:29:31;15.10;99.90
14517;DHT22;7344;50.864;4.362;2023-05-10T08:31:57;15.40;99.90
14517;DHT22;7344;50.864;4.362;2023-05-10T08:34:22;15.80;99.90
14517;DHT22;7344;50.864;4.362;2023-05-10T08:36:48;15.80;96.90
14517;DHT22;7344;50.864;4.362;2023-05-10T08:39:14;15.70;92.20
14517;DHT22;7344;50.864;4.362;2023-05-10T08:41:40;15.70;95.00
14517;DHT22;7344;50.864;4.362;2023-05-10T08:44:09;15.90;96.60
14517;DHT22;7344;50.864;4.362;2023-05-10T08:46:37;16.20;89.10
14517;DHT22;7344;50.864;4.362;2023-05-10T08:49:06;16.30;83.80
14517;DHT22;7344;50.864;4.362;2023-05-10T08:51:36;16.60;67.60
14517;DHT22;7344;50.864;4.362;2023-05-10T08:54:03;16.30;66.90
14517;DHT22;7344;50.864;4.362;2023-05-10T08:56:29;16.30;76.60
14517;DHT22;7344;50.864;4.362;2023-05-10T08:58:55;16.30;70.50
14517;DHT22;7344;50.864;4.362;2023-05-10T09:01:21;16.20;79.00
14517;DHT22;7344;50.864;4.362;2023-05-10T09:03:47;16.20;79.30
14517;DHT22;7344;50.864;4.362;2023-05-10T09:06:13;16.10;83.20
14517;DHT22;7344;50.864;4.362;2023-05-10T09:08:41;16.10;80.80
14517;DHT22;7344;50.864;4.362;2023-05-10T09:11:08;15.90;82.20
14517;DHT22;7344;50.864;4.362;2023-05-10T09:13:35;15.80;91.70
14517;DHT22;7344;50.864;4.362;2023-05-10T09:16:02;15.60;98.80
14517;DHT22;7344;50.864;4.362;2023-05-10T09:18:28;15.50;99.90
14517;DHT22;7344;50.864;4.362;2023-05-10T09:20:54;15.60;99.90
14517;DHT22;7344;50.864;4.362;2023-05-10T09:23:20;15.50;99.90
14517;DHT22;7344;50.864;4.362;2023-05-10T09:25:46;15.40;99.90
14517;DHT22;7344;50.864;4.362;2023-05-10T09:28:12;15.20;99.90
14517;DHT22;7344;50.864;4.362;2023-05-10T09:30:37;15.10;99.90
14517;DHT22;7344;50.864;4.362;2023-05-10T09:33:03;14.90;99.90
14517;DHT22;7344;50.864;4.362;2023-05-10T09:35:31;14.70;99.90
14517;DHT22;7344;50.864;4.362;2023-05-10T09:37:59;14.70;99.90
14517;DHT22;7344;50.864;4.362;2023-05-10T09:40:27;14.60;99.90
14517;DHT22;7344;50.864;4.362;2023-05-10T09:42:57;14.60;99.90
14517;DHT22;7344;50.864;4.362;2023-05-10T09:45:25;14.70;99.90
14517;DHT22;7344;50.864;4.362;2023-05-10T09:47:51;14.70;99.90
14517;DHT22;7344;50.864;4.362;2023-05-10T09:50:16;14.80;99.90
14517;DHT22;7344;50.864;4.362;2023-05-10T09:52:54;14.80;99.90
14517;DHT22;7344;50.864;4.362;2023-05-10T09:55:22;14.60;99.90
14517;DHT22;7344;50.864;4.362;2023-05-10T09:57:49;14.70;99.90
14517;DHT22;7344;50.864;4.362;2023-05-10T10:00:23;14.80;99.90
14517;DHT22;7344;50.864;4.362;2023-05-10T10:02:57;14.80;99.90
14517;DHT22;7344;50.864;4.362;2023-05-10T10:05:34;15.00;99.90
14517;DHT22;7344;50.864;4.362;2023-05-10T10:08:01;15.10;99.90
14517;DHT22;7344;50.864;4.362;2023-05-10T10:10:28;15.00;99.90
14517;DHT22;7344;50.864;4.362;2023-05-10T10:12:54;15.00;99.90
14517;DHT22;7344;50.864;4.362;2023-05-10T10:15:20;15.00;99.90
14517;DHT22;7344;50.864;4.362;2023-05-10T10:17:48;14.70;99.90
14517;DHT22;7344;50.864;4.362;2023-05-10T10:20:15;14.80;99.90
14517;DHT22;7344;50.864;4.362;2023-05-10T10:22:41;14.70;99.90
14517;DHT22;7344;50.864;4.362;2023-05-10T10:25:10;14.80;99.90
14517;DHT22;7344;50.864;4.362;2023-05-10T10:35:31;15.20;99.90
14517;DHT22;7344;50.864;4.362;2023-05-10T10:37:57;15.30;99.90
14517;DHT22;7344;50.864;4.362;2023-05-10T10:40:30;15.30;99.90
14517;DHT22;7344;50.864;4.362;2023-05-10T10:42:57;15.50;99.90
14517;DHT22;7344;50.864;4.362;2023-05-10T10:45:24;15.50;99.90
14517;DHT22;7344;50.864;4.362;2023-05-10T10:48:20;15.70;99.90
14517;DHT22;7344;50.864;4.362;2023-05-10T10:50:46;15.80;99.90
14517;DHT22;7344;50.864;4.362;2023-05-10T10:53:12;15.80;99.90
14517;DHT22;7344;50.864;4.362;2023-05-10T10:55:47;16.00;99.90
14517;DHT22;7344;50.864;4.362;2023-05-10T10:58:31;16.00;99.90
14517;DHT22;7344;50.864;4.362;2023-05-10T11:01:17;16.40;99.70
14517;DHT22;7344;50.864;4.362;2023-05-10T11:06:40;15.80;99.90
14517;DHT22;7344;50.864;4.362;2023-05-10T11:09:09;15.80;99.90
14517;DHT22;7344;50.864;4.362;2023-05-10T11:11:35;15.40;99.90
14517;DHT22;7344;50.864;4.362;2023-05-10T11:14:05;15.10;99.90
14517;DHT22;7344;50.864;4.362;2023-05-10T11:16:41;15.20;99.90
14517;DHT22;7344;50.864;4.362;2023-05-10T11:19:12;15.50;99.90
14517;DHT22;7344;50.864;4.362;2023-05-10T11:21:52;15.40;99.90
14517;DHT22;7344;50.864;4.362;2023-05-10T11:24:36;15.60;99.90
14517;DHT22;7344;50.864;4.362;2023-05-10T11:27:02;15.60;99.90
14517;DHT22;7344;50.864;4.362;2023-05-10T11:29:28;15.40;99.90
14517;DHT22;7344;50.864;4.362;2023-05-10T11:31:57;15.60;99.90
14517;DHT22;7344;50.864;4.362;2023-05-10T11:34:30;15.70;99.90
14517;DHT22;7344;50.864;4.362;2023-05-10T11:36:59;15.80;99.90
14517;DHT22;7344;50.864;4.362;2023-05-10T11:39:29;16.00;99.90
14517;DHT22;7344;50.864;4.362;2023-05-10T11:41:56;16.50;99.90
14517;DHT22;7344;50.864;4.362;2023-05-10T11:44:22;16.90;98.80
14517;DHT22;7344;50.864;4.362;2023-05-10T11:46:48;17.20;87.80
14517;DHT22;7344;50.864;4.362;2023-05-10T11:49:14;17.40;66.60
14517;DHT22;7344;50.864;4.362;2023-05-10T11:51:40;17.70;52.80
14517;DHT22;7344;50.864;4.362;2023-05-10T11:54:08;17.40;52.60
14517;DHT22;7344;50.864;4.362;2023-05-10T11:56:34;17.20;58.70
14517;DHT22;7344;50.864;4.362;2023-05-10T11:59:00;17.10;75.40
14517;DHT22;7344;50.864;4.362;2023-05-10T12:01:28;17.20;80.80
14517;DHT22;7344;50.864;4.362;2023-05-10T12:03:57;17.50;71.10
14517;DHT22;7344;50.864;4.362;2023-05-10T12:06:41;17.50;57.80
14517;DHT22;7344;50.864;4.362;2023-05-10T12:09:07;17.20;55.10
14517;DHT22;7344;50.864;4.362;2023-05-10T12:11:37;17.30;52.20
14517;DHT22;7344;50.864;4.362;2023-05-10T12:14:04;17.40;65.30
14517;DHT22;7344;50.864;4.362;2023-05-10T12:16:30;17.60;55.70
14517;DHT22;7344;50.864;4.362;2023-05-10T12:18:58;17.70;50.90
14517;DHT22;7344;50.864;4.362;2023-05-10T12:21:24;17.80;54.00
14517;DHT22;7344;50.864;4.362;2023-05-10T12:23:52;17.90;50.60
14517;DHT22;7344;50.864;4.362;2023-05-10T12:26:18;17.80;52.10
14517;DHT22;7344;50.864;4.362;2023-05-10T12:28:43;18.00;49.50
14517;DHT22;7344;50.864;4.362;2023-05-10T12:31:09;18.30;36.60
14517;DHT22;7344;50.864;4.362;2023-05-10T12:33:41;18.20;41.00
14517;DHT22;7344;50.864;4.362;2023-05-10T12:36:09;17.90;34.70
14517;DHT22;7344;50.864;4.362;2023-05-10T12:38:37;18.10;41.90
14517;DHT22;7344;50.864;4.362;2023-05-10T12:41:08;18.20;35.10
14517;DHT22;7344;50.864;4.362;2023-05-10T12:43:34;18.20;43.10
14517;DHT22;7344;50.864;4.362;2023-05-10T12:46:14;18.50;31.60
14517;DHT22;7344;50.864;4.362;2023-05-10T12:48:41;18.60;23.30
14517;DHT22;7344;50.864;4.362;2023-05-10T12:51:07;18.70;28.20
14517;DHT22;7344;50.864;4.362;2023-05-10T12:53:41;18.90;6.00
14517;DHT22;7344;50.864;4.362;2023-05-10T12:56:07;18.90;19.90
14517;DHT22;7344;50.864;4.362;2023-05-10T12:58:33;19.30;3.10
14517;DHT22;7344;50.864;4.362;2023-05-10T13:00:59;19.00;1.00
14517;DHT22;7344;50.864;4.362;2023-05-10T13:03:25;19.30;1.00
14517;DHT22;7344;50.864;4.362;2023-05-10T13:05:51;19.70;1.00
14517;DHT22;7344;50.864;4.362;2023-05-10T13:08:16;19.60;1.00
14517;DHT22;7344;50.864;4.362;2023-05-10T13:10:42;19.30;1.00
14517;DHT22;7344;50.864;4.362;2023-05-10T13:13:08;19.10;1.00
14517;DHT22;7344;50.864;4.362;2023-05-10T13:15:34;19.40;1.00
14517;DHT22;7344;50.864;4.362;2023-05-10T13:18:00;19.40;1.00
14517;DHT22;7344;50.864;4.362;2023-05-10T13:20:26;19.50;1.00
14517;DHT22;7344;50.864;4.362;2023-05-10T13:22:52;19.90;1.00
14517;DHT22;7344;50.864;4.362;2023-05-10T13:25:18;20.00;1.00
14517;DHT22;7344;50.864;4.362;2023-05-10T13:27:44;20.20;1.00
14517;DHT22;7344;50.864;4.362;2023-05-10T13:30:11;19.90;1.00
14517;DHT22;7344;50.864;4.362;2023-05-10T13:32:37;19.70;1.00
14517;DHT22;7344;50.864;4.362;2023-05-10T13:35:02;19.70;1.00
14517;DHT22;7344;50.864;4.362;2023-05-10T13:37:31;19.80;1.00
14517;DHT22;7344;50.864;4.362;2023-05-10T13:39:57;19.80;1.00
14517;DHT22;7344;50.864;4.362;2023-05-10T13:42:23;19.90;1.00
14517;DHT22;7344;50.864;4.362;2023-05-10T13:44:50;19.80;1.00
14517;DHT22;7344;50.864;4.362;2023-05-10T13:47:15;19.80;1.00
14517;DHT22;7344;50.864;4.362;2023-05-10T13:49:41;19.50;1.00
14517;DHT22;7344;50.864;4.362;2023-05-10T13:52:07;19.40;1.00
14517;DHT22;7344;50.864;4.362;2023-05-10T13:54:36;19.20;1.00
14517;DHT22;7344;50.864;4.362;2023-05-10T13:57:02;18.90;1.00
14517;DHT22;7344;50.864;4.362;2023-05-10T13:59:29;19.00;1.00
14517;DHT22;7344;50.864;4.362;2023-05-10T14:01:57;18.90;1.00
14517;DHT22;7344;50.864;4.362;2023-05-10T14:04:22;19.00;1.00
14517;DHT22;7344;50.864;4.362;2023-05-10T14:06:48;19.10;1.00
14517;DHT22;7344;50.864;4.362;2023-05-10T14:09:14;19.20;1.00
14517;DHT22;7344;50.864;4.362;2023-05-10T14:11:39;19.00;1.00
14517;DHT22;7344;50.864;4.362;2023-05-10T14:14:08;18.80;1.00
14517;DHT22;7344;50.864;4.362;2023-05-10T14:16:34;18.80;1.00
14517;DHT22;7344;50.864;4.362;2023-05-10T14:19:00;18.70;1.00
14517;DHT22;7344;50.864;4.362;2023-05-10T14:21:25;18.80;1.00
14517;DHT22;7344;50.864;4.362;2023-05-10T14:23:51;19.20;1.00
14517;DHT22;7344;50.864;4.362;2023-05-10T14:26:17;19.10;1.00
14517;DHT22;7344;50.864;4.362;2023-05-10T14:28:42;19.00;1.00
14517;DHT22;7344;50.864;4.362;2023-05-10T14:31:08;19.10;1.00
14517;DHT22;7344;50.864;4.362;2023-05-10T14:33:33;19.40;1.00
14517;DHT22;7344;50.864;4.362;2023-05-10T14:35:59;19.40;1.00
14517;DHT22;7344;50.864;4.362;2023-05-10T14:38:25;19.30;1.00
14517;DHT22;7344;50.864;4.362;2023-05-10T14:40:51;19.40;1.00
14517;DHT22;7344;50.864;4.362;2023-05-10T14:43:17;19.20;1.00
14517;DHT22;7344;50.864;4.362;2023-05-10T14:45:43;18.90;1.00
14517;DHT22;7344;50.864;4.362;2023-05-10T14:48:08;18.80;1.00
14517;DHT22;7344;50.864;4.362;2023-05-10T14:50:37;18.80;1.00
14517;DHT22;7344;50.864;4.362;2023-05-10T14:53:03;18.70;1.00
14517;DHT22;7344;50.864;4.362;2023-05-10T14:55:29;18.10;1.00
14517;DHT22;7344;50.864;4.362;2023-05-10T14:57:55;17.80;6.90
14517;DHT22;7344;50.864;4.362;2023-05-10T15:00:21;17.60;19.20
14517;DHT22;7344;50.864;4.362;2023-05-10T15:02:47;17.40;20.10
14517;DHT22;7344;50.864;4.362;2023-05-10T15:05:14;17.40;30.80
14517;DHT22;7344;50.864;4.362;2023-05-10T15:07:39;17.40;29.80
14517;DHT22;7344;50.864;4.362;2023-05-10T15:10:05;17.40;25.40
14517;DHT22;7344;50.864;4.362;2023-05-10T15:12:31;17.20;31.80
14517;DHT22;7344;50.864;4.362;2023-05-10T15:14:57;17.00;19.30
14517;DHT22;7344;50.864;4.362;2023-05-10T15:17:22;16.90;7.10
14517;DHT22;7344;50.864;4.362;2023-05-10T15:19:48;16.90;1.00
14517;DHT22;7344;50.864;4.362;2023-05-10T15:22:14;16.80;1.00
14517;DHT22;7344;50.864;4.362;2023-05-10T15:24:40;16.80;1.00
14517;DHT22;7344;50.864;4.362;2023-05-10T15:27:06;16.90;1.00
14517;DHT22;7344;50.864;4.362;2023-05-10T15:29:31;16.80;1.00
14517;DHT22;7344;50.864;4.362;2023-05-10T15:31:57;16.60;1.00
14517;DHT22;7344;50.864;4.362;2023-05-10T15:34:23;16.50;1.00
14517;DHT22;7344;50.864;4.362;2023-05-10T15:36:49;16.50;1.00
14517;DHT22;7344;50.864;4.362;2023-05-10T15:39:14;16.50;1.00
14517;DHT22;7344;50.864;4.362;2023-05-10T15:41:40;16.50;1.00
14517;DHT22;7344;50.864;4.362;2023-05-10T15:44:06;16.40;1.00
14517;DHT22;7344;50.864;4.362;2023-05-10T15:46:31;16.50;1.00
14517;DHT22;7344;50.864;4.362;2023-05-10T15:48:57;16.40;1.00
14517;DHT22;7344;50.864;4.362;2023-05-10T15:51:24;16.60;1.00
14517;DHT22;7344;50.864;4.362;2023-05-10T15:53:49;16.80;1.00
14517;DHT22;7344;50.864;4.362;2023-05-10T15:56:15;17.10;1.00
14517;DHT22;7344;50.864;4.362;2023-05-10T15:58:41;17.30;1.00
14517;DHT22;7344;50.864;4.362;2023-05-10T16:01:09;17.30;1.00
14517;DHT22;7344;50.864;4.362;2023-05-10T16:03:34;17.60;1.00
14517;DHT22;7344;50.864;4.362;2023-05-10T16:06:00;17.70;1.00
14517;DHT22;7344;50.864;4.362;2023-05-10T16:08:27;17.90;1.00
14517;DHT22;7344;50.864;4.362;2023-05-10T16:10:55;17.90;1.00